| Date | Time | Temp. (oF) | Dew Point (oF) | Rel. Hum. (%) | Press. (in.) | Wind Dir. | Wind Speed (mph) | Hourly Rainfall (in.) |
|
|---|---|---|---|---|---|---|---|---|---|
| 1 | 10/06 | 00:00 | 47 | 45 | 93 | 30.27 | S | 1 | 0.00 |
| 2 | 10/05 | 23:00 | 48 | 45 | 90 | 30.26 | SSW | 0 | 0.00 |
| 3 | 10/05 | 22:00 | 51 | 46 | 83 | 30.26 | NNW | 0 | 0.00 |
| 4 | 10/05 | 21:00 | 54 | 45 | 73 | 30.24 | N | 0 | 0.00 |
| 5 | 10/05 | 20:00 | 58 | 43 | 58 | 30.24 | NNW | 0 | 0.00 |
| 6 | 10/05 | 19:00 | 62 | 41 | 48 | 30.23 | WNW | 3 | 0.00 |
| 7 | 10/05 | 18:00 | 66 | 41 | 41 | 30.21 | WNW | 4 | 0.00 |
| 8 | 10/05 | 17:00 | 68 | 40 | 37 | 30.19 | NW | 2 | 0.00 |
| 9 | 10/05 | 16:00 | 68 | 41 | 39 | 30.19 | NNW | 4 | 0.00 |
| 10 | 10/05 | 15:00 | 69 | 42 | 38 | 30.20 | NNW | 4 | 0.00 |
| 11 | 10/05 | 14:00 | 68 | 48 | 49 | 30.21 | WNW | 1 | 0.00 |
| 12 | 10/05 | 13:00 | 67 | 51 | 57 | 30.23 | NW | 3 | 0.00 |
| 13 | 10/05 | 12:00 | 65 | 53 | 66 | 30.25 | NNW | 5 | 0.00 |
| 14 | 10/05 | 11:00 | 63 | 53 | 72 | 30.25 | NNW | 3 | 0.00 |
| 15 | 10/05 | 10:00 | 60 | 53 | 80 | 30.25 | WNW | 3 | 0.00 |
| 16 | 10/05 | 09:00 | 56 | 52 | 89 | 30.25 | NNW | 0 | 0.00 |
| 17 | 10/05 | 08:00 | 51 | 50 | 98 | 30.24 | WNW | 0 | 0.00 |
| 18 | 10/05 | 07:00 | 52 | 51 | 97 | 30.21 | NNW | 0 | 0.00 |
| 19 | 10/05 | 06:00 | 53 | 51 | 96 | 30.20 | NNW | 0 | 0.00 |
| 20 | 10/05 | 05:00 | 53 | 51 | 95 | 30.21 | SSW | 0 | 0.00 |
| 21 | 10/05 | 04:00 | 53 | 51 | 93 | 30.20 | NNW | 0 | 0.00 |
| 22 | 10/05 | 03:00 | 52 | 50 | 93 | 30.20 | S | 0 | 0.00 |
| 23 | 10/05 | 02:00 | 53 | 50 | 92 | 30.20 | N | 2 | 0.00 |
| 24 | 10/05 | 01:00 | 53 | 50 | 92 | 30.19 | NNE | 0 | 0.00 |